createdAt,value
2023-02-08T00:01:27.596Z,86.50
2023-02-08T00:04:13.046Z,86.30
2023-02-08T00:06:58.448Z,86.00
2023-02-08T00:09:43.836Z,87.00
2023-02-08T00:12:29.322Z,85.60
2023-02-08T00:15:15.255Z,85.90
2023-02-08T00:18:00.728Z,86.60
2023-02-08T00:20:46.342Z,86.40
2023-02-08T00:23:31.731Z,86.10
2023-02-08T00:26:17.495Z,84.90
2023-02-08T00:29:03.670Z,84.10
2023-02-08T00:31:49.249Z,83.80
2023-02-08T00:34:35.204Z,82.80
2023-02-08T00:37:20.726Z,83.60
2023-02-08T00:40:09.000Z,82.00
2023-02-08T00:42:54.440Z,81.80
2023-02-08T00:45:40.059Z,81.80
2023-02-08T00:48:27.567Z,79.80
2023-02-08T00:51:14.192Z,80.20
2023-02-08T00:54:00.010Z,78.10
2023-02-08T00:56:46.429Z,79.90
2023-02-08T00:59:31.565Z,80.70
2023-02-08T01:02:17.166Z,80.60
2023-02-08T01:05:03.776Z,77.50
2023-02-08T01:07:49.477Z,73.90
2023-02-08T01:10:34.879Z,74.30
2023-02-08T01:13:20.409Z,76.00
2023-02-08T01:16:14.205Z,74.80
2023-02-08T01:19:01.812Z,76.10
2023-02-08T01:21:49.183Z,72.30
2023-02-08T01:24:34.594Z,70.70
2023-02-08T01:27:20.079Z,69.30
2023-02-08T01:30:06.250Z,70.00
2023-02-08T01:32:53.313Z,71.70
2023-02-08T01:35:38.732Z,70.00
2023-02-08T01:38:24.273Z,68.50
2023-02-08T01:41:18.655Z,65.90
2023-02-08T01:44:17.623Z,70.60
2023-02-08T01:47:03.705Z,70.20
2023-02-08T01:49:49.394Z,69.20
2023-02-08T01:52:35.067Z,70.30
2023-02-08T01:55:29.202Z,69.80
2023-02-08T01:58:15.621Z,70.20
2023-02-08T02:01:02.966Z,72.60
2023-02-08T02:03:48.256Z,72.60
2023-02-08T02:06:37.437Z,72.00
2023-02-08T02:09:39.962Z,72.40
2023-02-08T02:12:26.322Z,71.30
2023-02-08T02:15:13.124Z,70.80
2023-02-08T02:17:58.399Z,74.30
2023-02-08T02:21:08.470Z,75.10
2023-02-08T02:24:00.224Z,75.40
2023-02-08T02:27:17.247Z,74.60
2023-02-08T02:30:20.525Z,70.80
2023-02-08T02:33:11.214Z,71.90
2023-02-08T02:36:17.901Z,72.70
2023-02-08T02:39:32.595Z,73.30
2023-02-08T02:42:57.688Z,71.60
2023-02-08T02:46:04.768Z,73.50
2023-02-08T02:49:04.440Z,74.70
2023-02-08T02:52:15.623Z,78.00
2023-02-08T02:55:09.655Z,81.30
2023-02-08T02:57:57.826Z,83.10
2023-02-08T03:00:43.411Z,85.30
2023-02-08T03:03:33.124Z,86.10
2023-02-08T03:06:42.120Z,86.70
2023-02-08T03:09:52.021Z,88.20
2023-02-08T03:13:02.544Z,88.20
2023-02-08T03:16:06.077Z,88.30
2023-02-08T03:19:33.163Z,89.50
2023-02-08T03:22:26.483Z,90.10
2023-02-08T03:25:23.366Z,90.50
2023-02-08T03:28:18.137Z,91.10
2023-02-08T03:31:19.302Z,91.50
2023-02-08T03:34:13.698Z,91.80
2023-02-08T03:37:08.207Z,92.00
2023-02-08T03:40:01.674Z,92.40
2023-02-08T03:42:50.636Z,92.20
2023-02-08T03:45:47.357Z,92.20
2023-02-08T03:48:36.197Z,92.20
2023-02-08T03:51:23.249Z,92.50
2023-02-08T03:54:13.934Z,92.70
2023-02-08T03:57:26.329Z,92.30
2023-02-08T04:00:15.679Z,92.10
2023-02-08T04:03:13.489Z,92.00
2023-02-08T04:05:58.856Z,92.30
2023-02-08T04:08:44.518Z,91.80
2023-02-08T04:11:30.011Z,92.10
2023-02-08T04:14:15.700Z,92.00
2023-02-08T04:17:02.105Z,92.30
2023-02-08T04:19:47.258Z,92.40
2023-02-08T04:22:33.526Z,92.40
2023-02-08T04:25:18.855Z,92.30
2023-02-08T04:28:04.396Z,92.40
2023-02-08T04:30:49.670Z,92.40
2023-02-08T04:33:34.983Z,92.50
2023-02-08T04:36:20.575Z,92.60
2023-02-08T04:39:06.063Z,92.50
2023-02-08T04:41:51.656Z,92.00
2023-02-08T04:44:37.046Z,92.00
2023-02-08T04:47:22.781Z,92.70
2023-02-08T04:50:08.328Z,93.30
2023-02-08T04:52:53.876Z,93.50
2023-02-08T04:55:39.600Z,93.60
2023-02-08T04:58:24.881Z,93.40
2023-02-08T05:01:10.964Z,93.40
2023-02-08T05:03:56.480Z,93.40
2023-02-08T05:06:42.029Z,93.40
2023-02-08T05:09:27.475Z,93.30
2023-02-08T05:12:13.021Z,93.90
2023-02-08T05:14:58.577Z,93.40
2023-02-08T05:17:44.119Z,93.90
2023-02-08T05:20:30.660Z,94.00
2023-02-08T05:23:15.926Z,94.40
2023-02-08T05:26:06.968Z,94.50
2023-02-08T05:28:52.680Z,94.40
2023-02-08T05:31:38.520Z,94.60
2023-02-08T05:34:24.542Z,94.10
2023-02-08T05:37:09.888Z,94.20
2023-02-08T05:39:55.624Z,93.60
2023-02-08T05:42:42.355Z,93.60
2023-02-08T05:45:27.654Z,93.70
2023-02-08T05:48:13.176Z,93.80
2023-02-08T05:50:59.428Z,93.60
2023-02-08T05:53:45.388Z,93.70
2023-02-08T05:56:31.250Z,93.80
2023-02-08T05:59:16.942Z,93.80
2023-02-08T06:02:02.390Z,93.60
2023-02-08T06:04:47.861Z,93.60
2023-02-08T06:07:33.389Z,93.50
2023-02-08T06:10:19.001Z,93.70
2023-02-08T06:13:05.029Z,93.90
2023-02-08T06:15:50.623Z,93.90
2023-02-08T06:18:36.191Z,93.80
2023-02-08T06:21:24.149Z,93.70
2023-02-08T06:24:11.398Z,93.80
2023-02-08T06:26:57.165Z,93.90
2023-02-08T06:29:42.510Z,93.90
2023-02-08T06:32:28.221Z,93.60
2023-02-08T06:35:13.917Z,94.00
2023-02-08T06:37:59.385Z,94.00
2023-02-08T06:40:46.810Z,94.50
2023-02-08T06:43:42.163Z,93.90
2023-02-08T06:46:28.670Z,94.20
2023-02-08T06:49:14.137Z,94.50
2023-02-08T06:51:59.659Z,94.60
2023-02-08T06:54:45.557Z,94.50
2023-02-08T06:57:31.169Z,94.10
2023-02-08T07:00:16.729Z,94.20
2023-02-08T07:03:02.299Z,94.80
2023-02-08T07:06:03.720Z,94.50
2023-02-08T07:08:50.207Z,95.00
2023-02-08T07:11:35.864Z,95.00
2023-02-08T07:14:21.364Z,95.10
2023-02-08T07:17:08.242Z,95.10
2023-02-08T07:19:54.071Z,95.40
2023-02-08T07:22:40.133Z,95.40
2023-02-08T07:25:25.753Z,95.10
2023-02-08T07:28:11.890Z,95.30
2023-02-08T07:30:58.178Z,95.10
2023-02-08T07:33:45.305Z,94.70
2023-02-08T07:36:30.879Z,95.20
2023-02-08T07:39:16.916Z,95.40
2023-02-08T07:42:02.555Z,95.40
2023-02-08T07:44:54.086Z,95.10
2023-02-08T07:47:39.476Z,94.80
2023-02-08T07:50:25.134Z,94.90
2023-02-08T07:53:10.574Z,94.70
2023-02-08T07:55:56.156Z,94.80
2023-02-08T07:58:41.482Z,94.60
2023-02-08T08:01:28.257Z,94.60
2023-02-08T08:04:13.943Z,94.60
2023-02-08T08:06:59.323Z,95.40
2023-02-08T08:09:44.864Z,94.80
2023-02-08T08:12:30.373Z,94.90
2023-02-08T08:15:15.952Z,95.10
2023-02-08T08:18:01.291Z,94.80
2023-02-08T08:20:46.808Z,94.20
2023-02-08T08:23:36.148Z,94.50
2023-02-08T08:26:22.116Z,94.40
2023-02-08T08:29:07.853Z,94.50
2023-02-08T08:31:53.510Z,94.00
2023-02-08T08:34:39.155Z,94.20
2023-02-08T08:37:24.749Z,93.80
2023-02-08T08:40:10.722Z,94.10
2023-02-08T08:42:57.245Z,93.90
2023-02-08T08:45:43.053Z,92.30
2023-02-08T08:48:28.923Z,92.20
2023-02-08T08:51:15.013Z,92.10
2023-02-08T08:54:00.697Z,92.70
2023-02-08T08:56:46.907Z,91.50
2023-02-08T08:59:33.086Z,91.20
2023-02-08T09:02:18.574Z,91.10
2023-02-08T09:05:06.129Z,91.50
2023-02-08T09:07:51.591Z,91.20
2023-02-08T09:10:37.347Z,91.20
2023-02-08T09:13:22.803Z,90.40
2023-02-08T09:16:14.995Z,90.30
2023-02-08T09:19:05.924Z,90.20
2023-02-08T09:21:51.611Z,90.50
2023-02-08T09:24:37.238Z,90.30
2023-02-08T09:27:22.567Z,88.10
2023-02-08T09:30:08.754Z,87.30
2023-02-08T09:32:54.233Z,88.30
2023-02-08T09:35:39.918Z,86.60
2023-02-08T09:38:25.484Z,85.80
2023-02-08T09:41:32.471Z,85.90
2023-02-08T09:44:44.312Z,85.70
2023-02-08T09:47:50.150Z,85.00
2023-02-08T09:51:00.380Z,84.10
2023-02-08T09:53:53.007Z,83.80
2023-02-08T09:56:42.134Z,80.90
2023-02-08T09:59:30.796Z,79.90
2023-02-08T10:02:31.289Z,79.90
2023-02-08T10:05:23.377Z,76.60
2023-02-08T10:08:11.694Z,77.40
2023-02-08T10:11:21.598Z,77.10
2023-02-08T10:14:49.445Z,75.00
2023-02-08T10:18:07.494Z,75.50
2023-02-08T10:21:08.132Z,71.80
2023-02-08T10:24:14.321Z,73.00
2023-02-08T10:27:17.750Z,70.50
2023-02-08T10:30:37.491Z,68.30
2023-02-08T10:46:10.408Z,67.20
2023-02-08T10:49:10.593Z,69.60
2023-02-08T10:51:56.404Z,70.10
2023-02-08T10:54:41.785Z,68.70
2023-02-08T10:57:34.471Z,68.60
2023-02-08T11:00:27.095Z,67.10
2023-02-08T11:03:18.022Z,65.70
2023-02-08T11:06:03.701Z,64.60
2023-02-08T11:08:55.911Z,64.10
2023-02-08T11:11:46.602Z,64.70
2023-02-08T11:14:47.217Z,66.10
2023-02-08T11:17:34.077Z,64.20
2023-02-08T11:20:31.719Z,64.90
2023-02-08T11:23:35.899Z,64.40
2023-02-08T11:26:32.191Z,63.90
2023-02-08T11:29:21.314Z,62.40
2023-02-08T11:32:17.534Z,62.60
2023-02-08T11:35:21.874Z,61.80
2023-02-08T11:38:17.328Z,61.80
2023-02-08T11:41:05.658Z,62.90
2023-02-08T11:44:04.424Z,61.30
2023-02-08T11:46:51.848Z,59.60
2023-02-08T11:49:43.046Z,60.10
2023-02-08T11:52:42.926Z,59.80
2023-02-08T11:55:31.556Z,60.90
2023-02-08T11:58:24.972Z,59.70
2023-02-08T12:01:36.783Z,57.70
2023-02-08T12:04:22.577Z,57.30
2023-02-08T12:07:14.743Z,56.90
2023-02-08T12:10:24.876Z,56.60
2023-02-08T12:13:51.003Z,54.40
2023-02-08T12:16:55.662Z,52.70
2023-02-08T12:20:20.401Z,44.80
2023-02-08T12:23:35.665Z,36.80
2023-02-08T12:26:54.750Z,29.50
2023-02-08T12:29:53.684Z,26.30
2023-02-08T12:33:02.895Z,25.10
2023-02-08T12:36:25.979Z,24.00
2023-02-08T12:39:38.484Z,22.80
2023-02-08T12:43:06.017Z,21.50
2023-02-08T12:46:10.019Z,21.30
2023-02-08T12:49:09.200Z,19.90
2023-02-08T12:52:03.999Z,20.60
2023-02-08T12:55:05.397Z,20.00
2023-02-08T12:57:54.599Z,20.30
2023-02-08T13:00:42.283Z,20.80
2023-02-08T13:03:38.469Z,20.60
2023-02-08T13:06:29.225Z,21.60
2023-02-08T13:09:35.378Z,22.20
2023-02-08T13:12:27.053Z,23.00
2023-02-08T13:16:03.256Z,23.90
2023-02-08T13:19:06.943Z,23.40
2023-02-08T13:21:54.480Z,23.70
2023-02-08T13:24:44.096Z,24.50
2023-02-08T13:27:29.717Z,24.20
2023-02-08T13:30:19.477Z,24.10
2023-02-08T13:33:23.880Z,24.20
2023-02-08T13:36:36.739Z,23.80
2023-02-08T13:39:33.126Z,24.10
2023-02-08T13:42:27.237Z,23.00
2023-02-08T13:45:34.213Z,22.00
2023-02-08T13:48:20.652Z,23.40
2023-02-08T13:51:07.995Z,23.00
2023-02-08T13:53:57.085Z,22.80
2023-02-08T13:56:48.747Z,22.00
2023-02-08T13:59:41.345Z,22.60
2023-02-08T14:02:28.216Z,22.90
2023-02-08T14:05:47.205Z,23.10
2023-02-08T14:08:52.042Z,24.20
2023-02-08T14:12:00.688Z,24.00
2023-02-08T14:15:07.838Z,24.10
2023-02-08T14:17:59.765Z,25.10
2023-02-08T14:21:05.670Z,25.00
2023-02-08T14:24:04.510Z,25.80
2023-02-08T14:26:50.989Z,26.60
2023-02-08T14:29:37.612Z,26.90
2023-02-08T14:32:29.388Z,27.90
2023-02-08T14:35:15.082Z,28.10
2023-02-08T14:38:18.977Z,29.10
2023-02-08T14:41:04.831Z,28.30
2023-02-08T14:43:50.072Z,28.20
2023-02-08T14:46:39.003Z,27.90
2023-02-08T14:49:27.462Z,28.80
2023-02-08T14:52:22.130Z,29.20
2023-02-08T14:55:26.383Z,29.10
2023-02-08T14:58:26.466Z,28.70
2023-02-08T15:01:27.279Z,29.20
2023-02-08T15:04:14.791Z,28.90
2023-02-08T15:07:14.654Z,31.60
2023-02-08T15:10:05.594Z,34.30
2023-02-08T15:12:58.055Z,36.60
2023-02-08T15:15:45.848Z,38.50
2023-02-08T15:18:32.849Z,40.40
2023-02-08T15:21:22.369Z,40.90
2023-02-08T15:24:23.094Z,41.50
2023-02-08T15:27:24.305Z,42.40
2023-02-08T15:30:23.763Z,43.90
2023-02-08T15:33:18.007Z,44.30
2023-02-08T15:36:14.741Z,44.50
2023-02-08T15:39:04.416Z,45.40
2023-02-08T15:41:50.150Z,45.60
2023-02-08T15:44:35.667Z,45.70
2023-02-08T15:47:29.862Z,46.50
2023-02-08T15:50:21.865Z,47.30
2023-02-08T15:53:13.740Z,47.10
2023-02-08T15:56:03.414Z,47.90
2023-02-08T15:58:53.730Z,48.50
2023-02-08T16:01:39.339Z,49.20
2023-02-08T16:04:25.865Z,49.10
2023-02-08T16:07:38.871Z,48.90
2023-02-08T16:10:24.906Z,49.60
2023-02-08T16:13:23.465Z,49.50
2023-02-08T16:16:22.520Z,49.90
2023-02-08T16:19:29.425Z,50.10
2023-02-08T16:22:14.673Z,51.10
2023-02-08T16:25:22.486Z,51.50
2023-02-08T16:28:28.189Z,52.00
2023-02-08T16:31:22.171Z,52.50
2023-02-08T16:34:20.072Z,52.50
2023-02-08T16:37:18.291Z,53.70
2023-02-08T16:40:27.199Z,53.90
2023-02-08T16:43:26.550Z,54.30
2023-02-08T16:46:15.778Z,54.70
2023-02-08T16:49:01.313Z,54.90
2023-02-08T16:51:47.111Z,54.90
2023-02-08T16:54:33.027Z,56.00
2023-02-08T16:57:19.461Z,56.70
2023-02-08T17:00:18.532Z,56.10
2023-02-08T17:03:04.121Z,57.00
2023-02-08T17:05:49.770Z,57.20
2023-02-08T17:08:35.939Z,58.20
2023-02-08T17:11:22.163Z,58.30
2023-02-08T17:14:08.724Z,58.90
2023-02-08T17:16:55.190Z,59.00
2023-02-08T17:19:41.098Z,59.30
2023-02-08T17:22:26.992Z,59.50
2023-02-08T17:25:20.420Z,59.60
2023-02-08T17:28:11.597Z,60.00
2023-02-08T17:30:57.664Z,61.10
2023-02-08T17:33:43.799Z,61.00
2023-02-08T17:36:31.433Z,61.70
2023-02-08T17:39:17.822Z,62.00
2023-02-08T17:42:04.328Z,63.00
2023-02-08T17:44:50.468Z,63.30
2023-02-08T17:47:38.319Z,63.80
2023-02-08T17:50:24.563Z,64.40
2023-02-08T17:53:10.325Z,65.30
2023-02-08T17:55:56.625Z,65.90
2023-02-08T17:58:43.006Z,66.10
2023-02-08T18:01:29.199Z,67.40
2023-02-08T18:04:14.777Z,68.80
2023-02-08T18:07:00.366Z,69.10
2023-02-08T18:09:46.071Z,69.40
2023-02-08T18:12:31.692Z,70.00
2023-02-08T18:15:22.736Z,71.30
2023-02-08T18:18:08.760Z,70.80
2023-02-08T18:20:54.304Z,71.20
2023-02-08T18:23:41.153Z,71.30
2023-02-08T18:26:26.925Z,71.50
2023-02-08T18:29:12.538Z,72.50
2023-02-08T18:31:58.485Z,72.00
2023-02-08T18:34:45.266Z,72.30
2023-02-08T18:37:33.761Z,73.70
2023-02-08T18:40:20.116Z,73.00
2023-02-08T18:43:06.034Z,74.00
2023-02-08T18:46:06.478Z,74.90
2023-02-08T18:48:54.075Z,75.20
2023-02-08T18:51:39.810Z,74.80
2023-02-08T18:54:26.022Z,75.20
2023-02-08T18:57:12.614Z,75.50
2023-02-08T18:59:58.296Z,75.70
2023-02-08T19:02:46.082Z,75.60
2023-02-08T19:05:32.299Z,76.30
2023-02-08T19:08:20.511Z,76.90
2023-02-08T19:11:17.689Z,77.90
2023-02-08T19:14:06.694Z,78.20
2023-02-08T19:16:52.373Z,78.00
2023-02-08T19:19:37.906Z,78.70
2023-02-08T19:22:23.382Z,80.10
2023-02-08T19:25:09.054Z,79.50
2023-02-08T19:27:54.639Z,79.80
2023-02-08T19:30:40.466Z,79.70
2023-02-08T19:33:25.776Z,80.10
2023-02-08T19:36:18.053Z,81.60
2023-02-08T19:39:04.916Z,81.90
2023-02-08T19:41:52.756Z,82.50
2023-02-08T19:44:38.207Z,82.40
2023-02-08T19:47:43.425Z,83.30
2023-02-08T19:50:31.398Z,83.40
2023-02-08T19:53:16.951Z,83.50
2023-02-08T19:56:11.702Z,83.40
2023-02-08T19:58:57.507Z,83.50
2023-02-08T20:01:43.738Z,83.40
2023-02-08T20:04:29.437Z,83.30
2023-02-08T20:07:15.127Z,84.30
2023-02-08T20:10:00.908Z,84.30
2023-02-08T20:12:46.821Z,85.00
2023-02-08T20:15:34.738Z,85.20
2023-02-08T20:18:22.079Z,85.60
2023-02-08T20:21:08.618Z,85.50
2023-02-08T20:23:54.482Z,85.50
2023-02-08T20:26:42.997Z,86.10
2023-02-08T20:29:28.761Z,86.50
2023-02-08T20:32:14.374Z,87.40
2023-02-08T20:35:00.173Z,86.90
2023-02-08T20:37:46.050Z,88.00
2023-02-08T20:40:31.864Z,88.00
2023-02-08T20:43:17.419Z,88.00
2023-02-08T20:46:08.549Z,88.00
2023-02-08T20:48:56.379Z,89.10
2023-02-08T20:51:41.991Z,88.70
2023-02-08T20:54:27.570Z,89.80
2023-02-08T20:57:18.205Z,89.90
2023-02-08T21:00:05.055Z,90.40
2023-02-08T21:02:51.071Z,90.00
2023-02-08T21:05:36.494Z,89.90
2023-02-08T21:08:22.286Z,90.00
2023-02-08T21:11:08.400Z,90.10
2023-02-08T21:13:55.047Z,90.40
2023-02-08T21:16:41.605Z,90.20
2023-02-08T21:19:29.984Z,90.00
2023-02-08T21:22:17.061Z,90.00
2023-02-08T21:25:03.204Z,90.10
2023-02-08T21:27:49.089Z,89.80
2023-02-08T21:30:34.449Z,90.00
2023-02-08T21:33:20.181Z,89.50
2023-02-08T21:36:10.306Z,89.90
2023-02-08T21:38:57.737Z,89.80
2023-02-08T21:41:43.593Z,90.00
2023-02-08T21:44:30.394Z,90.40
2023-02-08T21:47:16.012Z,90.70
2023-02-08T21:50:19.865Z,91.00
2023-02-08T21:53:23.761Z,91.10
2023-02-08T21:56:10.324Z,91.50
2023-02-08T21:58:56.176Z,91.30
2023-02-08T22:01:41.865Z,91.60
2023-02-08T22:04:27.353Z,91.50
2023-02-08T22:07:13.046Z,91.30
2023-02-08T22:09:58.721Z,91.10
2023-02-08T22:12:44.701Z,90.80
2023-02-08T22:15:30.746Z,90.50
2023-02-08T22:18:16.162Z,90.30
2023-02-08T22:21:04.205Z,90.50
2023-02-08T22:23:49.689Z,90.50
2023-02-08T22:26:35.342Z,90.50
2023-02-08T22:29:21.037Z,90.40
2023-02-08T22:32:09.859Z,90.50
2023-02-08T22:34:55.626Z,90.60
2023-02-08T22:37:41.453Z,90.70
2023-02-08T22:40:27.297Z,90.50
2023-02-08T22:43:13.186Z,90.20
2023-02-08T22:46:00.362Z,90.10
2023-02-08T22:48:46.415Z,90.80
2023-02-08T22:51:32.025Z,90.70
2023-02-08T22:54:17.500Z,90.90
2023-02-08T22:57:03.487Z,90.90
2023-02-08T22:59:49.117Z,91.50
2023-02-08T23:02:34.851Z,91.20
2023-02-08T23:05:20.499Z,91.50
2023-02-08T23:08:06.022Z,92.00
2023-02-08T23:10:59.283Z,91.60
2023-02-08T23:13:44.886Z,91.60
2023-02-08T23:16:30.447Z,92.00
2023-02-08T23:19:17.793Z,92.40
2023-02-08T23:22:03.605Z,92.30
2023-02-08T23:24:49.393Z,92.60
2023-02-08T23:27:34.981Z,92.10
2023-02-08T23:30:20.603Z,92.00
2023-02-08T23:33:06.334Z,92.20
2023-02-08T23:35:51.842Z,92.40
2023-02-08T23:38:38.702Z,92.70
2023-02-08T23:41:24.897Z,92.70
2023-02-08T23:44:10.964Z,92.60
2023-02-08T23:46:56.638Z,92.60
2023-02-08T23:49:42.253Z,92.50
2023-02-08T23:52:27.641Z,92.30
2023-02-08T23:55:13.231Z,92.20
2023-02-08T23:57:58.752Z,92.80
